sensor_id;sensor_type;location;lat;lon;timestamp;P1;durP1;ratioP1;P2;durP2;ratioP2
7527;SDS011;3805;49.006;8.514;2023-07-24T00:00:00;8.43;;;7.40;;
7527;SDS011;3805;49.006;8.514;2023-07-24T00:02:49;8.33;;;7.40;;
7527;SDS011;3805;49.006;8.514;2023-07-24T00:05:38;8.50;;;7.60;;
7527;SDS011;3805;49.006;8.514;2023-07-24T00:08:26;8.43;;;7.00;;
7527;SDS011;3805;49.006;8.514;2023-07-24T00:11:15;8.23;;;7.20;;
7527;SDS011;3805;49.006;8.514;2023-07-24T00:14:03;9.40;;;7.70;;
7527;SDS011;3805;49.006;8.514;2023-07-24T00:16:53;9.13;;;7.57;;
7527;SDS011;3805;49.006;8.514;2023-07-24T00:19:42;10.40;;;7.70;;
7527;SDS011;3805;49.006;8.514;2023-07-24T00:22:30;9.57;;;7.60;;
7527;SDS011;3805;49.006;8.514;2023-07-24T00:25:19;11.83;;;8.10;;
7527;SDS011;3805;49.006;8.514;2023-07-24T00:28:07;9.27;;;8.30;;
7527;SDS011;3805;49.006;8.514;2023-07-24T00:30:56;9.50;;;8.10;;
7527;SDS011;3805;49.006;8.514;2023-07-24T00:33:46;10.50;;;8.47;;
7527;SDS011;3805;49.006;8.514;2023-07-24T00:36:34;11.20;;;7.77;;
7527;SDS011;3805;49.006;8.514;2023-07-24T00:39:23;8.80;;;7.17;;
7527;SDS011;3805;49.006;8.514;2023-07-24T00:42:11;11.40;;;8.63;;
7527;SDS011;3805;49.006;8.514;2023-07-24T00:45:00;11.20;;;8.27;;
7527;SDS011;3805;49.006;8.514;2023-07-24T00:47:51;10.53;;;7.53;;
7527;SDS011;3805;49.006;8.514;2023-07-24T00:50:41;9.87;;;8.03;;
7527;SDS011;3805;49.006;8.514;2023-07-24T00:53:31;8.57;;;7.37;;
7527;SDS011;3805;49.006;8.514;2023-07-24T00:56:20;9.83;;;8.00;;
7527;SDS011;3805;49.006;8.514;2023-07-24T00:59:08;9.33;;;8.30;;
7527;SDS011;3805;49.006;8.514;2023-07-24T01:01:57;11.50;;;9.20;;
7527;SDS011;3805;49.006;8.514;2023-07-24T01:04:45;11.37;;;7.60;;
7527;SDS011;3805;49.006;8.514;2023-07-24T01:07:35;8.57;;;7.03;;
7527;SDS011;3805;49.006;8.514;2023-07-24T01:10:25;12.23;;;8.07;;
7527;SDS011;3805;49.006;8.514;2023-07-24T01:13:14;10.27;;;9.10;;
7527;SDS011;3805;49.006;8.514;2023-07-24T01:16:07;9.00;;;8.00;;
7527;SDS011;3805;49.006;8.514;2023-07-24T01:18:57;10.27;;;7.87;;
7527;SDS011;3805;49.006;8.514;2023-07-24T01:21:52;9.40;;;8.03;;
7527;SDS011;3805;49.006;8.514;2023-07-24T01:24:52;11.10;;;9.20;;
7527;SDS011;3805;49.006;8.514;2023-07-24T01:27:49;9.23;;;8.03;;
7527;SDS011;3805;49.006;8.514;2023-07-24T01:30:37;9.80;;;8.00;;
7527;SDS011;3805;49.006;8.514;2023-07-24T01:33:26;9.27;;;8.13;;
7527;SDS011;3805;49.006;8.514;2023-07-24T01:36:15;10.30;;;8.40;;
7527;SDS011;3805;49.006;8.514;2023-07-24T01:39:03;8.30;;;7.43;;
7527;SDS011;3805;49.006;8.514;2023-07-24T01:41:52;10.07;;;8.67;;
7527;SDS011;3805;49.006;8.514;2023-07-24T01:44:42;9.20;;;7.97;;
7527;SDS011;3805;49.006;8.514;2023-07-24T01:47:31;10.17;;;7.97;;
7527;SDS011;3805;49.006;8.514;2023-07-24T01:50:20;10.43;;;8.70;;
7527;SDS011;3805;49.006;8.514;2023-07-24T01:53:08;16.23;;;8.30;;
7527;SDS011;3805;49.006;8.514;2023-07-24T01:55:57;9.97;;;8.20;;
7527;SDS011;3805;49.006;8.514;2023-07-24T01:58:46;10.00;;;8.50;;
7527;SDS011;3805;49.006;8.514;2023-07-24T02:01:36;10.37;;;8.50;;
7527;SDS011;3805;49.006;8.514;2023-07-24T02:04:24;10.90;;;8.37;;
7527;SDS011;3805;49.006;8.514;2023-07-24T02:07:13;9.57;;;8.30;;
7527;SDS011;3805;49.006;8.514;2023-07-24T02:10:02;12.97;;;8.63;;
7527;SDS011;3805;49.006;8.514;2023-07-24T02:12:50;13.23;;;8.83;;
7527;SDS011;3805;49.006;8.514;2023-07-24T02:15:39;8.70;;;7.80;;
7527;SDS011;3805;49.006;8.514;2023-07-24T02:18:29;12.03;;;8.10;;
7527;SDS011;3805;49.006;8.514;2023-07-24T02:21:17;9.53;;;8.00;;
7527;SDS011;3805;49.006;8.514;2023-07-24T02:24:06;10.80;;;9.30;;
7527;SDS011;3805;49.006;8.514;2023-07-24T02:26:54;10.90;;;8.40;;
7527;SDS011;3805;49.006;8.514;2023-07-24T02:29:43;10.80;;;8.97;;
7527;SDS011;3805;49.006;8.514;2023-07-24T02:32:31;11.50;;;9.27;;
7527;SDS011;3805;49.006;8.514;2023-07-24T02:35:21;10.37;;;9.30;;
7527;SDS011;3805;49.006;8.514;2023-07-24T02:38:10;15.83;;;9.37;;
7527;SDS011;3805;49.006;8.514;2023-07-24T02:40:58;14.43;;;9.80;;
7527;SDS011;3805;49.006;8.514;2023-07-24T02:43:47;11.77;;;9.10;;
7527;SDS011;3805;49.006;8.514;2023-07-24T02:46:35;11.87;;;9.77;;
7527;SDS011;3805;49.006;8.514;2023-07-24T02:49:24;10.27;;;9.17;;
7527;SDS011;3805;49.006;8.514;2023-07-24T02:52:14;13.83;;;9.20;;
7527;SDS011;3805;49.006;8.514;2023-07-24T02:55:03;10.57;;;9.47;;
7527;SDS011;3805;49.006;8.514;2023-07-24T02:57:53;9.60;;;8.70;;
7527;SDS011;3805;49.006;8.514;2023-07-24T03:00:41;10.00;;;9.00;;
7527;SDS011;3805;49.006;8.514;2023-07-24T03:03:30;10.20;;;9.07;;
7527;SDS011;3805;49.006;8.514;2023-07-24T03:06:18;12.60;;;10.13;;
7527;SDS011;3805;49.006;8.514;2023-07-24T03:09:08;10.80;;;8.50;;
7527;SDS011;3805;49.006;8.514;2023-07-24T03:11:57;11.97;;;9.90;;
7527;SDS011;3805;49.006;8.514;2023-07-24T03:14:46;12.90;;;10.57;;
7527;SDS011;3805;49.006;8.514;2023-07-24T03:17:34;12.30;;;9.93;;
7527;SDS011;3805;49.006;8.514;2023-07-24T03:20:23;11.20;;;10.10;;
7527;SDS011;3805;49.006;8.514;2023-07-24T03:23:11;11.33;;;9.40;;
7527;SDS011;3805;49.006;8.514;2023-07-24T03:26:01;14.87;;;9.80;;
7527;SDS011;3805;49.006;8.514;2023-07-24T03:28:50;14.57;;;10.73;;
7527;SDS011;3805;49.006;8.514;2023-07-24T03:31:38;10.00;;;9.00;;
7527;SDS011;3805;49.006;8.514;2023-07-24T03:34:27;17.03;;;10.40;;
7527;SDS011;3805;49.006;8.514;2023-07-24T03:37:16;15.00;;;10.93;;
7527;SDS011;3805;49.006;8.514;2023-07-24T03:40:04;11.53;;;10.33;;
7527;SDS011;3805;49.006;8.514;2023-07-24T03:42:55;12.57;;;10.50;;
7527;SDS011;3805;49.006;8.514;2023-07-24T03:45:44;13.50;;;10.70;;
7527;SDS011;3805;49.006;8.514;2023-07-24T03:48:32;10.90;;;9.80;;
7527;SDS011;3805;49.006;8.514;2023-07-24T03:51:21;11.47;;;10.20;;
7527;SDS011;3805;49.006;8.514;2023-07-24T03:54:10;12.73;;;9.90;;
7527;SDS011;3805;49.006;8.514;2023-07-24T03:56:58;11.63;;;9.77;;
7527;SDS011;3805;49.006;8.514;2023-07-24T03:59:48;10.97;;;9.47;;
7527;SDS011;3805;49.006;8.514;2023-07-24T04:02:37;11.20;;;10.07;;
7527;SDS011;3805;49.006;8.514;2023-07-24T04:05:26;12.77;;;9.20;;
7527;SDS011;3805;49.006;8.514;2023-07-24T04:08:18;10.10;;;8.70;;
7527;SDS011;3805;49.006;8.514;2023-07-24T04:11:06;12.03;;;10.23;;
7527;SDS011;3805;49.006;8.514;2023-07-24T04:13:58;12.53;;;10.40;;
7527;SDS011;3805;49.006;8.514;2023-07-24T04:16:48;12.10;;;9.53;;
7527;SDS011;3805;49.006;8.514;2023-07-24T04:19:36;12.40;;;9.73;;
7527;SDS011;3805;49.006;8.514;2023-07-24T04:22:25;9.90;;;8.90;;
7527;SDS011;3805;49.006;8.514;2023-07-24T04:25:14;10.77;;;9.43;;
7527;SDS011;3805;49.006;8.514;2023-07-24T04:28:02;14.63;;;9.80;;
7527;SDS011;3805;49.006;8.514;2023-07-24T04:30:51;11.20;;;8.43;;
7527;SDS011;3805;49.006;8.514;2023-07-24T04:33:41;17.30;;;9.80;;
7527;SDS011;3805;49.006;8.514;2023-07-24T04:36:30;14.13;;;9.60;;
7527;SDS011;3805;49.006;8.514;2023-07-24T04:39:18;15.53;;;11.13;;
7527;SDS011;3805;49.006;8.514;2023-07-24T04:42:07;11.67;;;10.57;;
7527;SDS011;3805;49.006;8.514;2023-07-24T04:44:56;14.77;;;10.30;;
7527;SDS011;3805;49.006;8.514;2023-07-24T04:47:44;13.60;;;9.97;;
7527;SDS011;3805;49.006;8.514;2023-07-24T04:50:34;10.93;;;8.97;;
7527;SDS011;3805;49.006;8.514;2023-07-24T04:53:22;16.80;;;10.63;;
7527;SDS011;3805;49.006;8.514;2023-07-24T04:56:11;12.70;;;10.00;;
7527;SDS011;3805;49.006;8.514;2023-07-24T04:59:00;13.77;;;9.23;;
7527;SDS011;3805;49.006;8.514;2023-07-24T05:01:48;11.07;;;9.43;;
7527;SDS011;3805;49.006;8.514;2023-07-24T05:04:37;11.60;;;9.37;;
7527;SDS011;3805;49.006;8.514;2023-07-24T05:07:26;11.67;;;9.83;;
7527;SDS011;3805;49.006;8.514;2023-07-24T05:10:15;11.37;;;9.37;;
7527;SDS011;3805;49.006;8.514;2023-07-24T05:13:04;10.80;;;9.60;;
7527;SDS011;3805;49.006;8.514;2023-07-24T05:15:52;11.00;;;9.43;;
7527;SDS011;3805;49.006;8.514;2023-07-24T05:18:41;10.00;;;8.20;;
7527;SDS011;3805;49.006;8.514;2023-07-24T05:21:29;10.50;;;9.40;;
7527;SDS011;3805;49.006;8.514;2023-07-24T05:24:19;11.03;;;9.70;;
7527;SDS011;3805;49.006;8.514;2023-07-24T05:27:08;10.97;;;9.43;;
7527;SDS011;3805;49.006;8.514;2023-07-24T05:29:56;10.67;;;8.47;;
7527;SDS011;3805;49.006;8.514;2023-07-24T05:32:45;11.47;;;9.20;;
7527;SDS011;3805;49.006;8.514;2023-07-24T05:35:33;13.40;;;9.17;;
7527;SDS011;3805;49.006;8.514;2023-07-24T05:38:22;11.33;;;9.70;;
7527;SDS011;3805;49.006;8.514;2023-07-24T05:41:12;11.43;;;9.47;;
7527;SDS011;3805;49.006;8.514;2023-07-24T05:44:00;9.93;;;8.73;;
7527;SDS011;3805;49.006;8.514;2023-07-24T05:46:49;10.53;;;9.17;;
7527;SDS011;3805;49.006;8.514;2023-07-24T05:49:38;11.50;;;10.20;;
7527;SDS011;3805;49.006;8.514;2023-07-24T05:52:28;10.73;;;9.43;;
7527;SDS011;3805;49.006;8.514;2023-07-24T05:55:17;13.00;;;9.83;;
7527;SDS011;3805;49.006;8.514;2023-07-24T05:58:07;14.63;;;10.53;;
7527;SDS011;3805;49.006;8.514;2023-07-24T06:00:55;11.53;;;9.67;;
7527;SDS011;3805;49.006;8.514;2023-07-24T06:03:44;10.47;;;9.43;;
7527;SDS011;3805;49.006;8.514;2023-07-24T06:06:33;11.17;;;9.20;;
7527;SDS011;3805;49.006;8.514;2023-07-24T06:09:23;11.73;;;10.43;;
7527;SDS011;3805;49.006;8.514;2023-07-24T06:12:11;13.53;;;9.93;;
7527;SDS011;3805;49.006;8.514;2023-07-24T06:15:01;10.13;;;9.10;;
7527;SDS011;3805;49.006;8.514;2023-07-24T06:17:50;12.50;;;9.77;;
7527;SDS011;3805;49.006;8.514;2023-07-24T06:20:41;12.70;;;10.10;;
7527;SDS011;3805;49.006;8.514;2023-07-24T06:23:29;12.57;;;10.67;;
7527;SDS011;3805;49.006;8.514;2023-07-24T06:26:18;15.00;;;10.20;;
7527;SDS011;3805;49.006;8.514;2023-07-24T06:29:06;15.27;;;10.30;;
7527;SDS011;3805;49.006;8.514;2023-07-24T06:31:56;11.80;;;9.80;;
7527;SDS011;3805;49.006;8.514;2023-07-24T06:34:45;11.50;;;9.60;;
7527;SDS011;3805;49.006;8.514;2023-07-24T06:37:33;12.23;;;9.60;;
7527;SDS011;3805;49.006;8.514;2023-07-24T06:40:22;11.70;;;10.50;;
7527;SDS011;3805;49.006;8.514;2023-07-24T06:43:11;9.97;;;8.60;;
7527;SDS011;3805;49.006;8.514;2023-07-24T06:45:59;10.53;;;9.20;;
7527;SDS011;3805;49.006;8.514;2023-07-24T06:48:49;12.90;;;9.90;;
7527;SDS011;3805;49.006;8.514;2023-07-24T06:51:38;14.20;;;9.60;;
7527;SDS011;3805;49.006;8.514;2023-07-24T06:54:26;10.47;;;9.37;;
7527;SDS011;3805;49.006;8.514;2023-07-24T06:57:15;11.37;;;9.23;;
7527;SDS011;3805;49.006;8.514;2023-07-24T07:00:04;13.03;;;10.27;;
7527;SDS011;3805;49.006;8.514;2023-07-24T07:02:55;10.80;;;8.57;;
7527;SDS011;3805;49.006;8.514;2023-07-24T07:05:45;11.97;;;10.20;;
7527;SDS011;3805;49.006;8.514;2023-07-24T07:08:33;11.73;;;8.93;;
7527;SDS011;3805;49.006;8.514;2023-07-24T07:11:22;12.40;;;9.47;;
7527;SDS011;3805;49.006;8.514;2023-07-24T07:14:11;9.07;;;8.17;;
7527;SDS011;3805;49.006;8.514;2023-07-24T07:16:59;11.03;;;9.77;;
7527;SDS011;3805;49.006;8.514;2023-07-24T07:19:51;12.27;;;10.23;;
7527;SDS011;3805;49.006;8.514;2023-07-24T07:22:41;15.73;;;10.40;;
7527;SDS011;3805;49.006;8.514;2023-07-24T07:25:29;14.40;;;11.33;;
7527;SDS011;3805;49.006;8.514;2023-07-24T07:28:18;12.23;;;10.63;;
7527;SDS011;3805;49.006;8.514;2023-07-24T07:31:06;12.53;;;10.63;;
7527;SDS011;3805;49.006;8.514;2023-07-24T07:33:55;11.40;;;9.17;;
7527;SDS011;3805;49.006;8.514;2023-07-24T07:36:43;13.40;;;9.37;;
7527;SDS011;3805;49.006;8.514;2023-07-24T07:39:33;10.60;;;9.50;;
7527;SDS011;3805;49.006;8.514;2023-07-24T07:42:22;11.63;;;9.73;;
7527;SDS011;3805;49.006;8.514;2023-07-24T07:45:11;11.33;;;10.13;;
7527;SDS011;3805;49.006;8.514;2023-07-24T07:48:00;12.83;;;10.80;;
7527;SDS011;3805;49.006;8.514;2023-07-24T07:50:50;12.00;;;10.27;;
7527;SDS011;3805;49.006;8.514;2023-07-24T07:53:38;11.17;;;10.07;;
7527;SDS011;3805;49.006;8.514;2023-07-24T07:56:29;13.93;;;10.00;;
7527;SDS011;3805;49.006;8.514;2023-07-24T07:59:18;12.30;;;10.70;;
7527;SDS011;3805;49.006;8.514;2023-07-24T08:02:06;12.40;;;10.77;;
7527;SDS011;3805;49.006;8.514;2023-07-24T08:04:55;11.20;;;10.00;;
7527;SDS011;3805;49.006;8.514;2023-07-24T08:07:48;13.57;;;10.80;;
7527;SDS011;3805;49.006;8.514;2023-07-24T08:10:37;13.80;;;10.30;;
7527;SDS011;3805;49.006;8.514;2023-07-24T08:13:27;19.20;;;11.43;;
7527;SDS011;3805;49.006;8.514;2023-07-24T08:16:16;12.30;;;10.33;;
7527;SDS011;3805;49.006;8.514;2023-07-24T08:19:06;11.90;;;9.40;;
7527;SDS011;3805;49.006;8.514;2023-07-24T08:21:55;13.23;;;9.43;;
7527;SDS011;3805;49.006;8.514;2023-07-24T08:24:43;12.87;;;9.50;;
7527;SDS011;3805;49.006;8.514;2023-07-24T08:27:32;10.50;;;9.10;;
7527;SDS011;3805;49.006;8.514;2023-07-24T08:30:32;15.07;;;9.97;;
7527;SDS011;3805;49.006;8.514;2023-07-24T08:33:22;11.77;;;10.40;;
7527;SDS011;3805;49.006;8.514;2023-07-24T08:36:10;11.90;;;10.50;;
7527;SDS011;3805;49.006;8.514;2023-07-24T08:38:59;12.23;;;9.70;;
7527;SDS011;3805;49.006;8.514;2023-07-24T08:41:48;13.27;;;10.60;;
7527;SDS011;3805;49.006;8.514;2023-07-24T08:44:37;12.23;;;10.03;;
7527;SDS011;3805;49.006;8.514;2023-07-24T08:47:27;11.87;;;10.67;;
7527;SDS011;3805;49.006;8.514;2023-07-24T08:50:16;12.50;;;10.73;;
7527;SDS011;3805;49.006;8.514;2023-07-24T08:53:05;16.87;;;11.10;;
7527;SDS011;3805;49.006;8.514;2023-07-24T08:55:54;14.67;;;10.00;;
7527;SDS011;3805;49.006;8.514;2023-07-24T08:58:43;13.13;;;10.30;;
7527;SDS011;3805;49.006;8.514;2023-07-24T09:01:31;13.23;;;10.70;;
7527;SDS011;3805;49.006;8.514;2023-07-24T09:04:21;12.37;;;10.10;;
7527;SDS011;3805;49.006;8.514;2023-07-24T09:07:10;11.57;;;10.00;;
7527;SDS011;3805;49.006;8.514;2023-07-24T09:09:59;12.10;;;9.50;;
7527;SDS011;3805;49.006;8.514;2023-07-24T09:12:48;12.20;;;10.10;;
7527;SDS011;3805;49.006;8.514;2023-07-24T09:15:40;10.10;;;8.90;;
7527;SDS011;3805;49.006;8.514;2023-07-24T09:18:38;16.47;;;10.27;;
7527;SDS011;3805;49.006;8.514;2023-07-24T09:21:28;11.20;;;9.40;;
7527;SDS011;3805;49.006;8.514;2023-07-24T09:24:18;12.03;;;9.37;;
7527;SDS011;3805;49.006;8.514;2023-07-24T09:27:06;11.43;;;8.90;;
7527;SDS011;3805;49.006;8.514;2023-07-24T09:29:57;11.47;;;10.20;;
7527;SDS011;3805;49.006;8.514;2023-07-24T09:32:51;10.33;;;9.13;;
7527;SDS011;3805;49.006;8.514;2023-07-24T09:35:40;10.07;;;9.03;;
7527;SDS011;3805;49.006;8.514;2023-07-24T09:38:30;11.93;;;10.20;;
7527;SDS011;3805;49.006;8.514;2023-07-24T09:41:26;10.37;;;8.40;;
7527;SDS011;3805;49.006;8.514;2023-07-24T09:44:18;12.47;;;9.40;;
7527;SDS011;3805;49.006;8.514;2023-07-24T09:47:06;9.10;;;8.10;;
7527;SDS011;3805;49.006;8.514;2023-07-24T09:50:15;10.63;;;9.27;;
7527;SDS011;3805;49.006;8.514;2023-07-24T09:53:04;9.50;;;8.60;;
7527;SDS011;3805;49.006;8.514;2023-07-24T09:55:56;9.97;;;8.97;;
7527;SDS011;3805;49.006;8.514;2023-07-24T09:58:45;9.43;;;8.30;;
7527;SDS011;3805;49.006;8.514;2023-07-24T10:01:36;11.97;;;10.30;;
7527;SDS011;3805;49.006;8.514;2023-07-24T10:04:25;10.80;;;9.23;;
7527;SDS011;3805;49.006;8.514;2023-07-24T10:07:14;11.17;;;9.20;;
7527;SDS011;3805;49.006;8.514;2023-07-24T10:10:04;11.40;;;9.03;;
7527;SDS011;3805;49.006;8.514;2023-07-24T10:12:55;13.37;;;9.00;;
7527;SDS011;3805;49.006;8.514;2023-07-24T10:15:44;12.10;;;10.07;;
7527;SDS011;3805;49.006;8.514;2023-07-24T10:18:34;13.43;;;10.00;;
7527;SDS011;3805;49.006;8.514;2023-07-24T10:21:26;9.90;;;8.23;;
7527;SDS011;3805;49.006;8.514;2023-07-24T10:24:16;11.13;;;9.60;;
7527;SDS011;3805;49.006;8.514;2023-07-24T10:27:24;11.93;;;10.70;;
7527;SDS011;3805;49.006;8.514;2023-07-24T10:30:16;9.93;;;8.63;;
7527;SDS011;3805;49.006;8.514;2023-07-24T10:33:20;10.70;;;8.63;;
7527;SDS011;3805;49.006;8.514;2023-07-24T10:36:09;12.50;;;10.27;;
7527;SDS011;3805;49.006;8.514;2023-07-24T10:39:00;9.77;;;8.77;;
7527;SDS011;3805;49.006;8.514;2023-07-24T10:41:49;10.33;;;8.80;;
7527;SDS011;3805;49.006;8.514;2023-07-24T10:44:38;9.20;;;8.30;;
7527;SDS011;3805;49.006;8.514;2023-07-24T10:47:28;9.47;;;8.10;;
7527;SDS011;3805;49.006;8.514;2023-07-24T10:50:17;9.20;;;7.53;;
7527;SDS011;3805;49.006;8.514;2023-07-24T10:53:05;7.77;;;7.10;;
7527;SDS011;3805;49.006;8.514;2023-07-24T10:55:54;12.83;;;8.67;;
7527;SDS011;3805;49.006;8.514;2023-07-24T10:58:42;9.10;;;8.20;;
7527;SDS011;3805;49.006;8.514;2023-07-24T11:01:31;10.10;;;8.30;;
7527;SDS011;3805;49.006;8.514;2023-07-24T11:04:23;8.93;;;8.13;;
7527;SDS011;3805;49.006;8.514;2023-07-24T11:07:11;7.87;;;7.07;;
7527;SDS011;3805;49.006;8.514;2023-07-24T11:10:00;9.37;;;7.93;;
7527;SDS011;3805;49.006;8.514;2023-07-24T11:12:49;10.07;;;7.70;;
7527;SDS011;3805;49.006;8.514;2023-07-24T11:15:38;8.30;;;7.50;;
7527;SDS011;3805;49.006;8.514;2023-07-24T11:18:27;7.97;;;7.00;;
7527;SDS011;3805;49.006;8.514;2023-07-24T11:21:37;7.97;;;7.27;;
7527;SDS011;3805;49.006;8.514;2023-07-24T11:24:25;9.43;;;8.30;;
7527;SDS011;3805;49.006;8.514;2023-07-24T11:27:14;8.53;;;7.60;;
7527;SDS011;3805;49.006;8.514;2023-07-24T11:30:04;9.33;;;7.40;;
7527;SDS011;3805;49.006;8.514;2023-07-24T11:32:54;7.90;;;7.10;;
7527;SDS011;3805;49.006;8.514;2023-07-24T11:35:42;10.90;;;6.80;;
7527;SDS011;3805;49.006;8.514;2023-07-24T11:38:32;9.40;;;8.07;;
7527;SDS011;3805;49.006;8.514;2023-07-24T11:41:22;9.23;;;7.37;;
7527;SDS011;3805;49.006;8.514;2023-07-24T11:44:11;9.53;;;7.30;;
7527;SDS011;3805;49.006;8.514;2023-07-24T11:47:04;7.67;;;6.83;;
7527;SDS011;3805;49.006;8.514;2023-07-24T11:49:58;7.90;;;7.10;;
7527;SDS011;3805;49.006;8.514;2023-07-24T11:52:48;8.50;;;7.60;;
7527;SDS011;3805;49.006;8.514;2023-07-24T11:55:39;8.63;;;7.63;;
7527;SDS011;3805;49.006;8.514;2023-07-24T11:58:28;10.17;;;8.90;;
7527;SDS011;3805;49.006;8.514;2023-07-24T12:01:17;8.80;;;7.30;;
7527;SDS011;3805;49.006;8.514;2023-07-24T12:04:05;11.03;;;8.30;;
7527;SDS011;3805;49.006;8.514;2023-07-24T12:06:56;8.80;;;7.40;;
7527;SDS011;3805;49.006;8.514;2023-07-24T12:09:49;9.63;;;7.97;;
7527;SDS011;3805;49.006;8.514;2023-07-24T12:12:42;10.10;;;7.70;;
7527;SDS011;3805;49.006;8.514;2023-07-24T12:15:33;7.23;;;6.53;;
7527;SDS011;3805;49.006;8.514;2023-07-24T12:18:22;8.60;;;7.30;;
7527;SDS011;3805;49.006;8.514;2023-07-24T12:21:11;7.67;;;6.90;;
7527;SDS011;3805;49.006;8.514;2023-07-24T12:23:59;9.90;;;7.40;;
7527;SDS011;3805;49.006;8.514;2023-07-24T12:26:48;7.90;;;7.20;;
7527;SDS011;3805;49.006;8.514;2023-07-24T12:29:37;10.50;;;7.50;;
7527;SDS011;3805;49.006;8.514;2023-07-24T12:32:26;9.07;;;7.40;;
7527;SDS011;3805;49.006;8.514;2023-07-24T12:35:15;7.83;;;7.13;;
7527;SDS011;3805;49.006;8.514;2023-07-24T12:38:04;7.63;;;6.90;;
7527;SDS011;3805;49.006;8.514;2023-07-24T12:40:53;7.63;;;6.90;;
7527;SDS011;3805;49.006;8.514;2023-07-24T12:43:42;7.33;;;6.50;;
7527;SDS011;3805;49.006;8.514;2023-07-24T12:46:33;9.17;;;7.00;;
7527;SDS011;3805;49.006;8.514;2023-07-24T12:49:22;7.80;;;7.00;;
7527;SDS011;3805;49.006;8.514;2023-07-24T12:52:10;8.27;;;7.30;;
7527;SDS011;3805;49.006;8.514;2023-07-24T12:54:59;6.90;;;6.20;;
7527;SDS011;3805;49.006;8.514;2023-07-24T12:57:49;7.73;;;6.93;;
7527;SDS011;3805;49.006;8.514;2023-07-24T13:00:37;8.80;;;6.50;;
7527;SDS011;3805;49.006;8.514;2023-07-24T13:03:27;6.97;;;6.13;;
7527;SDS011;3805;49.006;8.514;2023-07-24T13:06:16;8.23;;;6.80;;
7527;SDS011;3805;49.006;8.514;2023-07-24T13:09:04;8.37;;;6.80;;
7527;SDS011;3805;49.006;8.514;2023-07-24T13:11:53;8.07;;;6.77;;
7527;SDS011;3805;49.006;8.514;2023-07-24T13:14:42;7.50;;;6.73;;
7527;SDS011;3805;49.006;8.514;2023-07-24T13:17:30;8.70;;;5.90;;
7527;SDS011;3805;49.006;8.514;2023-07-24T13:20:20;6.80;;;6.20;;
7527;SDS011;3805;49.006;8.514;2023-07-24T13:23:09;7.30;;;6.60;;
7527;SDS011;3805;49.006;8.514;2023-07-24T13:25:57;7.63;;;6.83;;
7527;SDS011;3805;49.006;8.514;2023-07-24T13:28:46;8.03;;;6.70;;
7527;SDS011;3805;49.006;8.514;2023-07-24T13:31:34;6.43;;;5.83;;
7527;SDS011;3805;49.006;8.514;2023-07-24T13:34:24;6.93;;;6.20;;
7527;SDS011;3805;49.006;8.514;2023-07-24T13:37:14;7.70;;;6.90;;
7527;SDS011;3805;49.006;8.514;2023-07-24T13:40:03;5.93;;;5.43;;
7527;SDS011;3805;49.006;8.514;2023-07-24T13:42:52;9.03;;;6.70;;
7527;SDS011;3805;49.006;8.514;2023-07-24T13:45:41;6.90;;;5.83;;
7527;SDS011;3805;49.006;8.514;2023-07-24T13:48:29;6.63;;;6.00;;
7527;SDS011;3805;49.006;8.514;2023-07-24T13:51:18;7.67;;;6.30;;
7527;SDS011;3805;49.006;8.514;2023-07-24T13:54:08;7.00;;;6.30;;
7527;SDS011;3805;49.006;8.514;2023-07-24T13:56:56;8.80;;;6.67;;
7527;SDS011;3805;49.006;8.514;2023-07-24T13:59:45;6.50;;;5.90;;
7527;SDS011;3805;49.006;8.514;2023-07-24T14:02:33;6.73;;;6.03;;
7527;SDS011;3805;49.006;8.514;2023-07-24T14:05:22;7.03;;;6.27;;
7527;SDS011;3805;49.006;8.514;2023-07-24T14:08:11;6.17;;;5.53;;
7527;SDS011;3805;49.006;8.514;2023-07-24T14:11:01;7.00;;;5.90;;
7527;SDS011;3805;49.006;8.514;2023-07-24T14:13:50;7.10;;;6.40;;
7527;SDS011;3805;49.006;8.514;2023-07-24T14:16:38;5.93;;;5.40;;
7527;SDS011;3805;49.006;8.514;2023-07-24T14:19:29;7.00;;;5.83;;
7527;SDS011;3805;49.006;8.514;2023-07-24T14:22:17;7.43;;;6.03;;
7527;SDS011;3805;49.006;8.514;2023-07-24T14:25:06;6.83;;;6.20;;
7527;SDS011;3805;49.006;8.514;2023-07-24T14:27:57;5.70;;;5.20;;
7527;SDS011;3805;49.006;8.514;2023-07-24T14:30:45;6.40;;;5.80;;
7527;SDS011;3805;49.006;8.514;2023-07-24T14:33:34;5.60;;;5.10;;
7527;SDS011;3805;49.006;8.514;2023-07-24T14:36:22;5.40;;;4.90;;
7527;SDS011;3805;49.006;8.514;2023-07-24T14:39:11;5.20;;;4.70;;
7527;SDS011;3805;49.006;8.514;2023-07-24T14:41:59;4.87;;;4.47;;
7527;SDS011;3805;49.006;8.514;2023-07-24T14:44:49;4.90;;;4.30;;
7527;SDS011;3805;49.006;8.514;2023-07-24T14:47:38;4.90;;;4.40;;
7527;SDS011;3805;49.006;8.514;2023-07-24T14:50:26;5.67;;;5.17;;
7527;SDS011;3805;49.006;8.514;2023-07-24T14:53:15;4.97;;;4.57;;
7527;SDS011;3805;49.006;8.514;2023-07-24T14:56:04;5.00;;;4.57;;
7527;SDS011;3805;49.006;8.514;2023-07-24T14:58:53;6.57;;;5.23;;
7527;SDS011;3805;49.006;8.514;2023-07-24T15:01:42;4.80;;;4.40;;
7527;SDS011;3805;49.006;8.514;2023-07-24T15:04:31;5.13;;;4.63;;
7527;SDS011;3805;49.006;8.514;2023-07-24T15:07:19;4.60;;;4.20;;
7527;SDS011;3805;49.006;8.514;2023-07-24T15:10:08;5.33;;;4.80;;
7527;SDS011;3805;49.006;8.514;2023-07-24T15:12:57;5.17;;;4.70;;
7527;SDS011;3805;49.006;8.514;2023-07-24T15:15:46;5.80;;;5.17;;
7527;SDS011;3805;49.006;8.514;2023-07-24T15:18:36;5.23;;;4.60;;
7527;SDS011;3805;49.006;8.514;2023-07-24T15:21:25;5.67;;;5.20;;
7527;SDS011;3805;49.006;8.514;2023-07-24T15:24:14;5.70;;;5.20;;
7527;SDS011;3805;49.006;8.514;2023-07-24T15:27:05;7.33;;;6.53;;
7527;SDS011;3805;49.006;8.514;2023-07-24T15:29:55;10.30;;;6.40;;
7527;SDS011;3805;49.006;8.514;2023-07-24T15:32:44;8.20;;;5.97;;
7527;SDS011;3805;49.006;8.514;2023-07-24T15:35:34;7.80;;;5.83;;
7527;SDS011;3805;49.006;8.514;2023-07-24T15:38:23;7.37;;;5.40;;
7527;SDS011;3805;49.006;8.514;2023-07-24T15:41:11;6.83;;;6.13;;
7527;SDS011;3805;49.006;8.514;2023-07-24T15:44:00;7.03;;;5.80;;
7527;SDS011;3805;49.006;8.514;2023-07-24T15:46:48;6.50;;;5.90;;
7527;SDS011;3805;49.006;8.514;2023-07-24T15:49:37;7.73;;;6.30;;
7527;SDS011;3805;49.006;8.514;2023-07-24T15:52:27;6.57;;;5.90;;
7527;SDS011;3805;49.006;8.514;2023-07-24T15:55:16;8.30;;;7.00;;
7527;SDS011;3805;49.006;8.514;2023-07-24T15:58:04;6.50;;;5.80;;
7527;SDS011;3805;49.006;8.514;2023-07-24T16:00:53;5.70;;;5.20;;
7527;SDS011;3805;49.006;8.514;2023-07-24T16:03:42;5.30;;;4.90;;
7527;SDS011;3805;49.006;8.514;2023-07-24T16:06:31;8.93;;;6.60;;
7527;SDS011;3805;49.006;8.514;2023-07-24T16:09:21;6.40;;;5.80;;
7527;SDS011;3805;49.006;8.514;2023-07-24T16:12:09;5.80;;;5.30;;
7527;SDS011;3805;49.006;8.514;2023-07-24T16:14:59;5.87;;;5.37;;
7527;SDS011;3805;49.006;8.514;2023-07-24T16:17:48;7.10;;;5.60;;
7527;SDS011;3805;49.006;8.514;2023-07-24T16:20:39;5.50;;;5.00;;
7527;SDS011;3805;49.006;8.514;2023-07-24T16:23:28;5.43;;;4.57;;
7527;SDS011;3805;49.006;8.514;2023-07-24T16:26:18;5.70;;;5.20;;
7527;SDS011;3805;49.006;8.514;2023-07-24T16:29:06;5.33;;;4.60;;
7527;SDS011;3805;49.006;8.514;2023-07-24T16:31:57;7.37;;;5.00;;
7527;SDS011;3805;49.006;8.514;2023-07-24T16:34:46;4.60;;;4.20;;
7527;SDS011;3805;49.006;8.514;2023-07-24T16:37:35;4.67;;;4.20;;
7527;SDS011;3805;49.006;8.514;2023-07-24T16:40:23;4.67;;;4.20;;
7527;SDS011;3805;49.006;8.514;2023-07-24T16:43:13;3.90;;;3.60;;
7527;SDS011;3805;49.006;8.514;2023-07-24T16:46:02;5.63;;;3.97;;
7527;SDS011;3805;49.006;8.514;2023-07-24T16:49:11;4.30;;;3.90;;
7527;SDS011;3805;49.006;8.514;2023-07-24T16:51:59;4.03;;;3.73;;
7527;SDS011;3805;49.006;8.514;2023-07-24T16:54:50;3.97;;;3.60;;
7527;SDS011;3805;49.006;8.514;2023-07-24T16:57:38;5.77;;;3.37;;
7527;SDS011;3805;49.006;8.514;2023-07-24T17:00:28;3.97;;;3.57;;
7527;SDS011;3805;49.006;8.514;2023-07-24T17:03:17;4.17;;;3.33;;
7527;SDS011;3805;49.006;8.514;2023-07-24T17:06:05;3.53;;;3.33;;
7527;SDS011;3805;49.006;8.514;2023-07-24T17:08:54;4.57;;;3.13;;
7527;SDS011;3805;49.006;8.514;2023-07-24T17:11:42;4.23;;;3.30;;
7527;SDS011;3805;49.006;8.514;2023-07-24T17:14:31;7.43;;;6.83;;
7527;SDS011;3805;49.006;8.514;2023-07-24T17:17:21;6.27;;;5.77;;
7527;SDS011;3805;49.006;8.514;2023-07-24T17:20:10;7.17;;;4.83;;